sensor_id;sensor_type;location;lat;lon;timestamp;pressure;altitude;pressure_sealevel;temperature;humidity
60583;BME280;46415;47.536;19.066;2023-02-01T00:00:00;100469.31;;;2.59;100.00
60583;BME280;46415;47.536;19.066;2023-02-01T00:03:03;100472.69;;;2.62;100.00
60583;BME280;46415;47.536;19.066;2023-02-01T00:06:08;100475.28;;;2.59;100.00
60583;BME280;46415;47.536;19.066;2023-02-01T00:09:11;100471.81;;;2.65;100.00
60583;BME280;46415;47.536;19.066;2023-02-01T00:12:14;100467.50;;;2.68;100.00
60583;BME280;46415;47.536;19.066;2023-02-01T00:15:17;100470.94;;;2.67;100.00
60583;BME280;46415;47.536;19.066;2023-02-01T00:18:20;100463.31;;;2.61;100.00
60583;BME280;46415;47.536;19.066;2023-02-01T00:21:23;100461.44;;;2.75;100.00
60583;BME280;46415;47.536;19.066;2023-02-01T00:24:26;100464.00;;;2.78;100.00
60583;BME280;46415;47.536;19.066;2023-02-01T00:27:29;100475.09;;;2.77;100.00
60583;BME280;46415;47.536;19.066;2023-02-01T00:30:32;100476.88;;;2.74;100.00
60583;BME280;46415;47.536;19.066;2023-02-01T00:33:35;100467.34;;;2.85;100.00
60583;BME280;46415;47.536;19.066;2023-02-01T00:36:38;100464.66;;;2.97;100.00
60583;BME280;46415;47.536;19.066;2023-02-01T00:39:41;100473.19;;;2.98;100.00
60583;BME280;46415;47.536;19.066;2023-02-01T00:42:44;100468.00;;;3.01;100.00
60583;BME280;46415;47.536;19.066;2023-02-01T00:45:47;100461.19;;;3.00;100.00
60583;BME280;46415;47.536;19.066;2023-02-01T00:48:50;100447.47;;;3.04;100.00
60583;BME280;46415;47.536;19.066;2023-02-01T00:51:53;100454.28;;;3.06;100.00
60583;BME280;46415;47.536;19.066;2023-02-01T00:54:56;100466.28;;;3.03;100.00
60583;BME280;46415;47.536;19.066;2023-02-01T00:57:58;100468.72;;;3.13;100.00
60583;BME280;46415;47.536;19.066;2023-02-01T01:04:06;100468.78;;;3.07;100.00
60583;BME280;46415;47.536;19.066;2023-02-01T01:07:09;100464.66;;;2.96;100.00
60583;BME280;46415;47.536;19.066;2023-02-01T01:10:12;100451.84;;;2.97;100.00
60583;BME280;46415;47.536;19.066;2023-02-01T01:13:15;100444.16;;;2.94;100.00
60583;BME280;46415;47.536;19.066;2023-02-01T01:16:20;100428.84;;;2.86;100.00
60583;BME280;46415;47.536;19.066;2023-02-01T01:19:23;100432.25;;;2.90;100.00
60583;BME280;46415;47.536;19.066;2023-02-01T01:22:25;100418.72;;;2.79;100.00
60583;BME280;46415;47.536;19.066;2023-02-01T01:25:29;100411.16;;;2.65;100.00
60583;BME280;46415;47.536;19.066;2023-02-01T01:28:32;100414.72;;;2.51;100.00
60583;BME280;46415;47.536;19.066;2023-02-01T01:31:35;100410.56;;;2.42;100.00
60583;BME280;46415;47.536;19.066;2023-02-01T01:34:37;100409.03;;;2.26;100.00
60583;BME280;46415;47.536;19.066;2023-02-01T01:37:40;100399.75;;;2.13;100.00
60583;BME280;46415;47.536;19.066;2023-02-01T01:40:47;100405.81;;;2.02;100.00
60583;BME280;46415;47.536;19.066;2023-02-01T01:43:56;100392.13;;;2.03;100.00
60583;BME280;46415;47.536;19.066;2023-02-01T01:47:00;100393.84;;;2.04;100.00
60583;BME280;46415;47.536;19.066;2023-02-01T01:50:06;100406.63;;;2.04;100.00
60583;BME280;46415;47.536;19.066;2023-02-01T01:53:12;100408.28;;;2.10;100.00
60583;BME280;46415;47.536;19.066;2023-02-01T01:56:16;100411.66;;;2.20;100.00
60583;BME280;46415;47.536;19.066;2023-02-01T01:59:21;100403.91;;;2.26;100.00
60583;BME280;46415;47.536;19.066;2023-02-01T02:02:24;100387.00;;;2.86;100.00
60583;BME280;46415;47.536;19.066;2023-02-01T02:05:27;100390.06;;;3.15;100.00
60583;BME280;46415;47.536;19.066;2023-02-01T02:08:31;100388.12;;;3.31;100.00
60583;BME280;46415;47.536;19.066;2023-02-01T02:11:36;100383.97;;;3.22;100.00
60583;BME280;46415;47.536;19.066;2023-02-01T02:14:39;100389.84;;;3.31;100.00
60583;BME280;46415;47.536;19.066;2023-02-01T02:22:05;100387.28;;;3.31;100.00
60583;BME280;46415;47.536;19.066;2023-02-01T02:35:04;100378.91;;;3.16;100.00
60583;BME280;46415;47.536;19.066;2023-02-01T02:38:15;100373.50;;;3.39;100.00
60583;BME280;46415;47.536;19.066;2023-02-01T02:41:45;100371.91;;;3.29;100.00
60583;BME280;46415;47.536;19.066;2023-02-01T02:55:13;100368.63;;;3.19;100.00
60583;BME280;46415;47.536;19.066;2023-02-01T02:58:17;100362.66;;;3.20;100.00
60583;BME280;46415;47.536;19.066;2023-02-01T03:01:41;100355.16;;;3.05;100.00
60583;BME280;46415;47.536;19.066;2023-02-01T03:05:03;100347.50;;;3.02;100.00
60583;BME280;46415;47.536;19.066;2023-02-01T03:08:14;100349.69;;;3.28;100.00
60583;BME280;46415;47.536;19.066;2023-02-01T03:11:19;100338.72;;;3.20;100.00
60583;BME280;46415;47.536;19.066;2023-02-01T03:14:26;100325.56;;;3.41;100.00
60583;BME280;46415;47.536;19.066;2023-02-01T03:17:35;100329.47;;;3.63;100.00
60583;BME280;46415;47.536;19.066;2023-02-01T03:20:44;100341.41;;;3.67;100.00
60583;BME280;46415;47.536;19.066;2023-02-01T03:23:49;100331.91;;;3.73;100.00
60583;BME280;46415;47.536;19.066;2023-02-01T03:26:55;100336.25;;;3.69;100.00
60583;BME280;46415;47.536;19.066;2023-02-01T03:30:19;100321.69;;;3.69;100.00
60583;BME280;46415;47.536;19.066;2023-02-01T03:33:25;100329.31;;;3.74;100.00
60583;BME280;46415;47.536;19.066;2023-02-01T03:36:42;100324.16;;;3.76;100.00
60583;BME280;46415;47.536;19.066;2023-02-01T03:40:03;100329.34;;;3.73;100.00
60583;BME280;46415;47.536;19.066;2023-02-01T03:43:10;100313.94;;;3.73;100.00
60583;BME280;46415;47.536;19.066;2023-02-01T03:46:22;100326.78;;;3.73;100.00
60583;BME280;46415;47.536;19.066;2023-02-01T03:49:33;100327.47;;;3.82;100.00
60583;BME280;46415;47.536;19.066;2023-02-01T03:55:41;100336.97;;;3.76;100.00
60583;BME280;46415;47.536;19.066;2023-02-01T03:58:44;100335.91;;;3.89;100.00
60583;BME280;46415;47.536;19.066;2023-02-01T04:02:01;100325.72;;;3.84;100.00
60583;BME280;46415;47.536;19.066;2023-02-01T04:05:04;100341.25;;;3.77;100.00
60583;BME280;46415;47.536;19.066;2023-02-01T04:08:08;100337.91;;;3.72;100.00
60583;BME280;46415;47.536;19.066;2023-02-01T04:11:10;100328.56;;;3.67;100.00
60583;BME280;46415;47.536;19.066;2023-02-01T04:14:13;100330.59;;;3.49;100.00
60583;BME280;46415;47.536;19.066;2023-02-01T04:17:16;100340.88;;;3.47;100.00
60583;BME280;46415;47.536;19.066;2023-02-01T04:20:19;100333.06;;;3.53;100.00
60583;BME280;46415;47.536;19.066;2023-02-01T04:23:22;100345.97;;;3.50;100.00
60583;BME280;46415;47.536;19.066;2023-02-01T04:26:25;100320.34;;;3.47;100.00
60583;BME280;46415;47.536;19.066;2023-02-01T04:29:28;100340.62;;;3.62;100.00
60583;BME280;46415;47.536;19.066;2023-02-01T04:32:31;100324.50;;;3.56;100.00
60583;BME280;46415;47.536;19.066;2023-02-01T04:35:33;100341.63;;;3.52;100.00
60583;BME280;46415;47.536;19.066;2023-02-01T04:38:36;100344.34;;;3.43;100.00
60583;BME280;46415;47.536;19.066;2023-02-01T04:41:39;100350.22;;;3.51;100.00
60583;BME280;46415;47.536;19.066;2023-02-01T04:44:42;100351.09;;;3.50;100.00
60583;BME280;46415;47.536;19.066;2023-02-01T04:47:45;100345.91;;;3.53;100.00
60583;BME280;46415;47.536;19.066;2023-02-01T04:50:48;100347.69;;;3.48;100.00
60583;BME280;46415;47.536;19.066;2023-02-01T04:53:51;100367.44;;;3.45;100.00
60583;BME280;46415;47.536;19.066;2023-02-01T04:56:54;100353.69;;;3.49;100.00
60583;BME280;46415;47.536;19.066;2023-02-01T04:59:57;100362.37;;;3.39;100.00
60583;BME280;46415;47.536;19.066;2023-02-01T05:02:59;100382.25;;;3.24;100.00
60583;BME280;46415;47.536;19.066;2023-02-01T05:06:03;100360.00;;;3.25;100.00
60583;BME280;46415;47.536;19.066;2023-02-01T05:09:07;100371.28;;;3.15;100.00
60583;BME280;46415;47.536;19.066;2023-02-01T05:12:10;100367.72;;;3.23;100.00
60583;BME280;46415;47.536;19.066;2023-02-01T05:15:31;100360.84;;;3.27;100.00
60583;BME280;46415;47.536;19.066;2023-02-01T05:18:34;100353.25;;;3.18;100.00
60583;BME280;46415;47.536;19.066;2023-02-01T05:21:37;100365.06;;;3.29;100.00
60583;BME280;46415;47.536;19.066;2023-02-01T05:24:40;100370.22;;;3.28;100.00
60583;BME280;46415;47.536;19.066;2023-02-01T05:27:45;100372.78;;;3.28;100.00
60583;BME280;46415;47.536;19.066;2023-02-01T05:30:47;100386.34;;;3.36;100.00
60583;BME280;46415;47.536;19.066;2023-02-01T05:33:50;100372.75;;;3.29;100.00
60583;BME280;46415;47.536;19.066;2023-02-01T05:36:53;100372.91;;;3.20;100.00
60583;BME280;46415;47.536;19.066;2023-02-01T05:39:56;100369.41;;;3.26;100.00
60583;BME280;46415;47.536;19.066;2023-02-01T05:42:59;100367.78;;;3.20;100.00
60583;BME280;46415;47.536;19.066;2023-02-01T05:46:02;100368.63;;;3.19;100.00
60583;BME280;46415;47.536;19.066;2023-02-01T05:49:05;100373.78;;;3.16;100.00
60583;BME280;46415;47.536;19.066;2023-02-01T05:52:07;100382.38;;;3.14;100.00
60583;BME280;46415;47.536;19.066;2023-02-01T05:55:10;100380.69;;;3.14;100.00
60583;BME280;46415;47.536;19.066;2023-02-01T05:58:13;100371.22;;;3.18;100.00
60583;BME280;46415;47.536;19.066;2023-02-01T06:01:16;100381.53;;;3.15;100.00
60583;BME280;46415;47.536;19.066;2023-02-01T06:04:19;100383.13;;;3.22;100.00
60583;BME280;46415;47.536;19.066;2023-02-01T06:07:21;100388.31;;;3.16;100.00
60583;BME280;46415;47.536;19.066;2023-02-01T06:10:24;100383.94;;;3.24;100.00
60583;BME280;46415;47.536;19.066;2023-02-01T06:13:28;100378.81;;;3.27;100.00
60583;BME280;46415;47.536;19.066;2023-02-01T06:16:31;100389.09;;;3.22;100.00
60583;BME280;46415;47.536;19.066;2023-02-01T06:19:34;100399.50;;;3.10;100.00
60583;BME280;46415;47.536;19.066;2023-02-01T06:22:37;100411.53;;;3.07;100.00
60583;BME280;46415;47.536;19.066;2023-02-01T06:25:39;100421.00;;;3.00;100.00
60583;BME280;46415;47.536;19.066;2023-02-01T06:28:42;100416.78;;;2.98;100.00
60583;BME280;46415;47.536;19.066;2023-02-01T06:31:45;100408.28;;;2.93;100.00
60583;BME280;46415;47.536;19.066;2023-02-01T06:34:48;100419.34;;;2.98;100.00
60583;BME280;46415;47.536;19.066;2023-02-01T06:37:51;100413.34;;;2.99;100.00
60583;BME280;46415;47.536;19.066;2023-02-01T06:40:55;100425.22;;;3.06;100.00
60583;BME280;46415;47.536;19.066;2023-02-01T06:43:58;100437.03;;;3.19;100.00
60583;BME280;46415;47.536;19.066;2023-02-01T06:47:03;100427.72;;;3.10;100.00
60583;BME280;46415;47.536;19.066;2023-02-01T06:50:09;100420.75;;;3.21;100.00
60583;BME280;46415;47.536;19.066;2023-02-01T06:53:12;100431.06;;;3.17;100.00
60583;BME280;46415;47.536;19.066;2023-02-01T06:56:14;100426.91;;;3.10;100.00
60583;BME280;46415;47.536;19.066;2023-02-01T06:59:17;100429.50;;;3.05;100.00
60583;BME280;46415;47.536;19.066;2023-02-01T07:02:20;100441.34;;;3.15;100.00
60583;BME280;46415;47.536;19.066;2023-02-01T07:05:23;100437.03;;;3.19;100.00
60583;BME280;46415;47.536;19.066;2023-02-01T07:08:30;100422.41;;;3.25;100.00
60583;BME280;46415;47.536;19.066;2023-02-01T07:11:33;100428.16;;;3.41;100.00
60583;BME280;46415;47.536;19.066;2023-02-01T07:14:36;100427.88;;;3.62;100.00
60583;BME280;46415;47.536;19.066;2023-02-01T07:17:39;100418.34;;;3.70;100.00
60583;BME280;46415;47.536;19.066;2023-02-01T07:20:42;100424.97;;;3.85;100.00
60583;BME280;46415;47.536;19.066;2023-02-01T07:23:46;100424.59;;;4.08;100.00
60583;BME280;46415;47.536;19.066;2023-02-01T07:26:48;100440.56;;;4.27;99.83
60583;BME280;46415;47.536;19.066;2023-02-01T07:29:53;100433.37;;;4.45;98.53
60583;BME280;46415;47.536;19.066;2023-02-01T07:32:57;100440.97;;;4.51;98.22
60583;BME280;46415;47.536;19.066;2023-02-01T07:36:06;100443.31;;;4.64;96.41
60583;BME280;46415;47.536;19.066;2023-02-01T07:39:09;100443.87;;;4.79;96.29
60583;BME280;46415;47.536;19.066;2023-02-01T07:42:12;100448.16;;;4.79;94.82
60583;BME280;46415;47.536;19.066;2023-02-01T07:45:15;100450.59;;;4.88;93.42
60583;BME280;46415;47.536;19.066;2023-02-01T07:48:24;100453.69;;;5.04;91.62
60583;BME280;46415;47.536;19.066;2023-02-01T07:51:27;100448.22;;;5.19;90.70
60583;BME280;46415;47.536;19.066;2023-02-01T07:54:30;100461.66;;;5.33;89.66
60583;BME280;46415;47.536;19.066;2023-02-01T07:57:32;100454.69;;;5.38;88.04
60583;BME280;46415;47.536;19.066;2023-02-01T08:00:35;100448.44;;;5.50;87.76
60583;BME280;46415;47.536;19.066;2023-02-01T08:04:02;100450.25;;;5.45;86.85
60583;BME280;46415;47.536;19.066;2023-02-01T08:07:05;100450.25;;;5.45;86.47
60583;BME280;46415;47.536;19.066;2023-02-01T08:10:08;100451.31;;;5.36;87.21
60583;BME280;46415;47.536;19.066;2023-02-01T08:13:14;100462.62;;;5.27;87.96
60583;BME280;46415;47.536;19.066;2023-02-01T08:16:18;100471.69;;;5.05;89.69
60583;BME280;46415;47.536;19.066;2023-02-01T08:19:21;100476.00;;;5.03;89.30
60583;BME280;46415;47.536;19.066;2023-02-01T08:22:24;100473.56;;;4.96;91.10
60583;BME280;46415;47.536;19.066;2023-02-01T08:25:27;100470.09;;;4.98;90.91
60583;BME280;46415;47.536;19.066;2023-02-01T08:28:30;100482.94;;;5.00;89.91
60583;BME280;46415;47.536;19.066;2023-02-01T08:31:33;100495.91;;;4.93;90.95
60583;BME280;46415;47.536;19.066;2023-02-01T08:34:36;100511.22;;;5.00;89.88
60583;BME280;46415;47.536;19.066;2023-02-01T08:37:39;100499.88;;;5.10;90.15
60583;BME280;46415;47.536;19.066;2023-02-01T08:40:42;100514.41;;;5.12;90.09
60583;BME280;46415;47.536;19.066;2023-02-01T08:43:45;100516.06;;;5.15;89.85
60583;BME280;46415;47.536;19.066;2023-02-01T08:46:51;100505.00;;;5.11;89.41
60583;BME280;46415;47.536;19.066;2023-02-01T08:49:54;100503.09;;;5.19;88.52
60583;BME280;46415;47.536;19.066;2023-02-01T08:52:57;100503.84;;;5.24;88.71
60583;BME280;46415;47.536;19.066;2023-02-01T08:55:59;100504.06;;;5.15;89.14
60583;BME280;46415;47.536;19.066;2023-02-01T08:59:03;100497.09;;;5.20;89.28
60583;BME280;46415;47.536;19.066;2023-02-01T09:02:09;100500.00;;;5.47;87.21
60583;BME280;46415;47.536;19.066;2023-02-01T09:05:14;100506.59;;;5.60;86.40
60583;BME280;46415;47.536;19.066;2023-02-01T09:08:18;100483.34;;;5.63;85.22
60583;BME280;46415;47.536;19.066;2023-02-01T09:11:22;100488.44;;;5.66;85.59
60583;BME280;46415;47.536;19.066;2023-02-01T09:14:25;100490.69;;;5.78;84.72
60583;BME280;46415;47.536;19.066;2023-02-01T09:17:29;100475.22;;;6.18;82.88
60583;BME280;46415;47.536;19.066;2023-02-01T09:20:32;100473.47;;;6.54;80.37
60583;BME280;46415;47.536;19.066;2023-02-01T09:23:35;100471.84;;;6.82;80.32
60583;BME280;46415;47.536;19.066;2023-02-01T09:26:38;100489.78;;;6.87;79.81
60583;BME280;46415;47.536;19.066;2023-02-01T09:29:41;100494.97;;;7.18;77.90
60583;BME280;46415;47.536;19.066;2023-02-01T09:32:44;100487.31;;;7.15;77.36
60583;BME280;46415;47.536;19.066;2023-02-01T09:35:47;100479.00;;;7.34;77.83
60583;BME280;46415;47.536;19.066;2023-02-01T09:38:50;100481.63;;;7.33;80.62
60583;BME280;46415;47.536;19.066;2023-02-01T09:41:59;100483.31;;;7.03;82.91
60583;BME280;46415;47.536;19.066;2023-02-01T09:45:22;100499.25;;;6.54;86.67
60583;BME280;46415;47.536;19.066;2023-02-01T09:48:35;100490.19;;;6.38;89.65
60583;BME280;46415;47.536;19.066;2023-02-01T09:51:45;100503.22;;;6.32;91.90
60583;BME280;46415;47.536;19.066;2023-02-01T09:55:03;100482.94;;;6.20;90.98
60583;BME280;46415;47.536;19.066;2023-02-01T09:58:32;100476.44;;;6.02;91.75
60583;BME280;46415;47.536;19.066;2023-02-01T10:01:37;100479.12;;;5.99;90.89
60583;BME280;46415;47.536;19.066;2023-02-01T10:04:40;100468.25;;;6.22;89.51
60583;BME280;46415;47.536;19.066;2023-02-01T10:11:20;100466.03;;;6.42;85.54
60583;BME280;46415;47.536;19.066;2023-02-01T10:21:32;100435.88;;;6.11;86.59
60583;BME280;46415;47.536;19.066;2023-02-01T10:24:46;100434.56;;;6.62;86.59
60583;BME280;46415;47.536;19.066;2023-02-01T10:27:50;100424.25;;;6.62;84.87
60583;BME280;46415;47.536;19.066;2023-02-01T10:30:56;100416.28;;;6.38;86.85
60583;BME280;46415;47.536;19.066;2023-02-01T10:34:09;100428.47;;;6.66;86.02
60583;BME280;46415;47.536;19.066;2023-02-01T10:37:26;100425.28;;;6.87;85.44
60583;BME280;46415;47.536;19.066;2023-02-01T10:40:30;100425.28;;;6.87;84.90
60583;BME280;46415;47.536;19.066;2023-02-01T10:43:33;100421.75;;;6.91;85.41
60583;BME280;46415;47.536;19.066;2023-02-01T10:46:36;100428.88;;;6.81;85.03
60583;BME280;46415;47.536;19.066;2023-02-01T10:53:05;100429.25;;;6.98;84.45
60583;BME280;46415;47.536;19.066;2023-02-01T10:56:10;100414.78;;;6.94;86.01
60583;BME280;46415;47.536;19.066;2023-02-01T10:59:19;100396.34;;;7.07;85.82
60583;BME280;46415;47.536;19.066;2023-02-01T11:02:32;100396.59;;;7.27;84.26
60583;BME280;46415;47.536;19.066;2023-02-01T11:05:45;100385.00;;;7.12;84.28
60583;BME280;46415;47.536;19.066;2023-02-01T11:08:51;100383.47;;;7.07;83.53
60583;BME280;46415;47.536;19.066;2023-02-01T11:11:57;100384.66;;;7.24;83.75
60583;BME280;46415;47.536;19.066;2023-02-01T11:18:30;100369.56;;;7.66;81.69
60583;BME280;46415;47.536;19.066;2023-02-01T11:21:33;100371.97;;;7.72;80.34
60583;BME280;46415;47.536;19.066;2023-02-01T11:24:37;100376.75;;;7.29;81.38
60583;BME280;46415;47.536;19.066;2023-02-01T11:27:41;100369.00;;;7.01;84.27
60583;BME280;46415;47.536;19.066;2023-02-01T11:31:00;100363.34;;;6.88;86.48
60583;BME280;46415;47.536;19.066;2023-02-01T11:34:17;100364.09;;;6.92;90.20
60583;BME280;46415;47.536;19.066;2023-02-01T11:37:34;100375.66;;;6.48;93.12
60583;BME280;46415;47.536;19.066;2023-02-01T11:40:38;100363.75;;;5.76;99.19
60583;BME280;46415;47.536;19.066;2023-02-01T11:43:53;100364.25;;;5.16;100.00
60583;BME280;46415;47.536;19.066;2023-02-01T11:47:58;100366.63;;;4.85;100.00
60583;BME280;46415;47.536;19.066;2023-02-01T11:54:08;100352.00;;;4.46;100.00
60583;BME280;46415;47.536;19.066;2023-02-01T11:57:29;100342.72;;;4.37;100.00
60583;BME280;46415;47.536;19.066;2023-02-01T12:07:46;100334.94;;;4.42;100.00
60583;BME280;46415;47.536;19.066;2023-02-01T12:17:57;100320.56;;;4.32;100.00
60583;BME280;46415;47.536;19.066;2023-02-01T12:21:10;100313.94;;;4.22;100.00
60583;BME280;46415;47.536;19.066;2023-02-01T12:28:23;100328.53;;;4.18;100.00
60583;BME280;46415;47.536;19.066;2023-02-01T12:35:58;100343.50;;;3.95;100.00
60583;BME280;46415;47.536;19.066;2023-02-01T12:42:22;100361.22;;;3.58;100.00
60583;BME280;46415;47.536;19.066;2023-02-01T12:45:49;100369.91;;;3.51;100.00
60583;BME280;46415;47.536;19.066;2023-02-01T12:52:04;100343.06;;;3.15;100.00
60583;BME280;46415;47.536;19.066;2023-02-01T12:58:32;100331.03;;;3.18;100.00
60583;BME280;46415;47.536;19.066;2023-02-01T13:01:41;100331.03;;;3.18;100.00
60583;BME280;46415;47.536;19.066;2023-02-01T13:08:09;100291.50;;;3.33;100.00
60583;BME280;46415;47.536;19.066;2023-02-01T13:11:39;100279.09;;;3.59;100.00
60583;BME280;46415;47.536;19.066;2023-02-01T13:15:02;100277.44;;;4.04;100.00
60583;BME280;46415;47.536;19.066;2023-02-01T13:18:15;100274.66;;;4.15;100.00
60583;BME280;46415;47.536;19.066;2023-02-01T13:21:28;100260.47;;;3.97;100.00
60583;BME280;46415;47.536;19.066;2023-02-01T13:24:47;100236.66;;;3.88;100.00
60583;BME280;46415;47.536;19.066;2023-02-01T13:27:53;100239.41;;;3.79;100.00
60583;BME280;46415;47.536;19.066;2023-02-01T13:47:40;100270.75;;;3.96;100.00
60583;BME280;46415;47.536;19.066;2023-02-01T13:50:50;100273.53;;;3.84;100.00
60583;BME280;46415;47.536;19.066;2023-02-01T13:53:54;100275.38;;;3.76;100.00
60583;BME280;46415;47.536;19.066;2023-02-01T13:56:59;100273.00;;;3.65;100.00
60583;BME280;46415;47.536;19.066;2023-02-01T14:00:30;100284.13;;;3.65;100.00
60583;BME280;46415;47.536;19.066;2023-02-01T14:03:50;100261.97;;;3.61;100.00
60583;BME280;46415;47.536;19.066;2023-02-01T14:06:53;100246.34;;;3.74;100.00
60583;BME280;46415;47.536;19.066;2023-02-01T14:13:41;100248.03;;;4.21;100.00
60583;BME280;46415;47.536;19.066;2023-02-01T14:20:41;100269.50;;;4.98;100.00
60583;BME280;46415;47.536;19.066;2023-02-01T14:27:24;100277.09;;;5.03;100.00
60583;BME280;46415;47.536;19.066;2023-02-01T14:30:25;100299.91;;;4.79;100.00
60583;BME280;46415;47.536;19.066;2023-02-01T14:33:28;100310.03;;;4.45;100.00
60583;BME280;46415;47.536;19.066;2023-02-01T14:36:41;100300.91;;;4.31;100.00
60583;BME280;46415;47.536;19.066;2023-02-01T14:42:51;100293.28;;;4.26;100.00
60583;BME280;46415;47.536;19.066;2023-02-01T14:45:54;100301.84;;;4.27;100.00
60583;BME280;46415;47.536;19.066;2023-02-01T14:48:57;100290.47;;;4.40;100.00
60583;BME280;46415;47.536;19.066;2023-02-01T14:52:04;100300.31;;;4.60;100.00
60583;BME280;46415;47.536;19.066;2023-02-01T14:55:16;100291.09;;;4.91;100.00
60583;BME280;46415;47.536;19.066;2023-02-01T15:01:55;100301.47;;;4.86;100.00
60583;BME280;46415;47.536;19.066;2023-02-01T15:04:58;100289.47;;;4.87;100.00
60583;BME280;46415;47.536;19.066;2023-02-01T15:08:11;100310.66;;;4.98;100.00
60583;BME280;46415;47.536;19.066;2023-02-01T15:11:16;100291.72;;;5.01;100.00
60583;BME280;46415;47.536;19.066;2023-02-01T15:14:19;100289.13;;;5.01;100.00
60583;BME280;46415;47.536;19.066;2023-02-01T15:17:24;100292.00;;;4.88;100.00
60583;BME280;46415;47.536;19.066;2023-02-01T15:20:30;100285.31;;;4.80;100.00
60583;BME280;46415;47.536;19.066;2023-02-01T15:23:35;100290.72;;;4.68;100.00
60583;BME280;46415;47.536;19.066;2023-02-01T15:26:38;100269.69;;;4.50;100.00
60583;BME280;46415;47.536;19.066;2023-02-01T15:29:41;100291.22;;;4.45;100.00
60583;BME280;46415;47.536;19.066;2023-02-01T15:32:44;100261.25;;;4.44;100.00
60583;BME280;46415;47.536;19.066;2023-02-01T15:35:49;100279.22;;;4.45;100.00
60583;BME280;46415;47.536;19.066;2023-02-01T15:39:15;100267.22;;;4.44;100.00
60583;BME280;46415;47.536;19.066;2023-02-01T15:42:20;100275.69;;;4.49;100.00
60583;BME280;46415;47.536;19.066;2023-02-01T15:45:29;100271.53;;;4.44;100.00
60583;BME280;46415;47.536;19.066;2023-02-01T15:48:49;100281.78;;;4.45;100.00
60583;BME280;46415;47.536;19.066;2023-02-01T15:51:54;100269.84;;;4.41;100.00
60583;BME280;46415;47.536;19.066;2023-02-01T15:55:00;100280.06;;;4.46;100.00
60583;BME280;46415;47.536;19.066;2023-02-01T15:58:08;100284.22;;;4.51;100.00
60583;BME280;46415;47.536;19.066;2023-02-01T16:01:12;100295.38;;;4.50;100.00
60583;BME280;46415;47.536;19.066;2023-02-01T16:04:24;100278.81;;;4.64;100.00
60583;BME280;46415;47.536;19.066;2023-02-01T16:07:30;100314.59;;;4.73;100.00
60583;BME280;46415;47.536;19.066;2023-02-01T16:10:39;100309.38;;;4.77;100.00
60583;BME280;46415;47.536;19.066;2023-02-01T16:13:42;100306.34;;;4.59;100.00
60583;BME280;46415;47.536;19.066;2023-02-01T16:16:45;100325.69;;;4.33;100.00
60583;BME280;46415;47.536;19.066;2023-02-01T16:19:48;100329.53;;;4.11;100.00
60583;BME280;46415;47.536;19.066;2023-02-01T16:22:51;100319.44;;;4.00;100.00
60583;BME280;46415;47.536;19.066;2023-02-01T16:25:53;100311.09;;;3.89;100.00
60583;BME280;46415;47.536;19.066;2023-02-01T16:28:57;100297.34;;;3.92;100.00
60583;BME280;46415;47.536;19.066;2023-02-01T16:32:00;100302.41;;;3.96;100.00
60583;BME280;46415;47.536;19.066;2023-02-01T16:35:05;100308.37;;;3.98;100.00
60583;BME280;46415;47.536;19.066;2023-02-01T16:38:15;100303.25;;;3.97;100.00
60583;BME280;46415;47.536;19.066;2023-02-01T16:41:22;100300.41;;;4.12;100.00
60583;BME280;46415;47.536;19.066;2023-02-01T16:44:25;100293.69;;;4.05;100.00
60583;BME280;46415;47.536;19.066;2023-02-01T16:47:29;100295.47;;;4.00;100.00
60583;BME280;46415;47.536;19.066;2023-02-01T16:50:32;100296.44;;;3.94;100.00
60583;BME280;46415;47.536;19.066;2023-02-01T16:53:36;100294.72;;;3.95;100.00
60583;BME280;46415;47.536;19.066;2023-02-01T16:56:55;100304.22;;;3.90;100.00
60583;BME280;46415;47.536;19.066;2023-02-01T16:59:58;100296.31;;;4.02;100.00
60583;BME280;46415;47.536;19.066;2023-02-01T17:03:16;100284.22;;;4.07;100.00
60583;BME280;46415;47.536;19.066;2023-02-01T17:06:24;100275.78;;;4.02;100.00
60583;BME280;46415;47.536;19.066;2023-02-01T17:09:27;100286.16;;;3.94;100.00
60583;BME280;46415;47.536;19.066;2023-02-01T17:12:30;100284.81;;;3.75;100.00
60583;BME280;46415;47.536;19.066;2023-02-01T17:15:34;100278.00;;;3.74;100.00
60583;BME280;46415;47.536;19.066;2023-02-01T17:18:38;100279.72;;;3.72;100.00
60583;BME280;46415;47.536;19.066;2023-02-01T17:21:45;100263.94;;;3.93;100.00
60583;BME280;46415;47.536;19.066;2023-02-01T17:24:49;100276.19;;;4.25;100.00
60583;BME280;46415;47.536;19.066;2023-02-01T17:27:53;100289.72;;;4.33;100.00
60583;BME280;46415;47.536;19.066;2023-02-01T17:30:57;100276.69;;;4.42;100.00
60583;BME280;46415;47.536;19.066;2023-02-01T17:34:00;100272.25;;;4.50;100.00
60583;BME280;46415;47.536;19.066;2023-02-01T17:37:36;100280.69;;;4.57;100.00
60583;BME280;46415;47.536;19.066;2023-02-01T17:40:39;100277.13;;;4.63;100.00
60583;BME280;46415;47.536;19.066;2023-02-01T17:43:43;100282.56;;;4.47;100.00
60583;BME280;46415;47.536;19.066;2023-02-01T17:46:45;100291.59;;;4.25;100.00
60583;BME280;46415;47.536;19.066;2023-02-01T17:49:48;100289.72;;;4.33;100.00
60583;BME280;46415;47.536;19.066;2023-02-01T17:52:58;100294.00;;;4.33;100.00
60583;BME280;46415;47.536;19.066;2023-02-01T17:56:01;100305.31;;;4.66;100.00
60583;BME280;46415;47.536;19.066;2023-02-01T17:59:04;100284.59;;;4.75;100.00
60583;BME280;46415;47.536;19.066;2023-02-01T18:05:38;100304.47;;;4.65;100.00
60583;BME280;46415;47.536;19.066;2023-02-01T18:08:42;100305.28;;;4.69;100.00